createdAt,value
2018-11-26T00:01:03.620Z,0
2018-11-26T00:02:13.587Z,0
2018-11-26T00:03:23.534Z,0
2018-11-26T00:04:33.484Z,0
2018-11-26T00:05:42.967Z,0
2018-11-26T00:06:52.692Z,0
2018-11-26T00:08:02.133Z,0
2018-11-26T00:09:11.853Z,0
2018-11-26T00:10:21.295Z,0
2018-11-26T00:11:31.257Z,0
2018-11-26T00:12:40.957Z,0
2018-11-26T00:13:50.680Z,0
2018-11-26T00:15:00.382Z,0
2018-11-26T00:16:10.336Z,0
2018-11-26T00:17:20.036Z,0
2018-11-26T00:18:29.736Z,0
2018-11-26T00:19:39.692Z,0
2018-11-26T00:20:48.900Z,0
2018-11-26T00:21:58.582Z,0
2018-11-26T00:23:08.288Z,0
2018-11-26T00:24:18.242Z,0
2018-11-26T00:25:27.929Z,0
2018-11-26T00:26:37.381Z,0
2018-11-26T00:27:46.836Z,0
2018-11-26T00:28:56.552Z,0
2018-11-26T00:30:06.523Z,0
2018-11-26T00:31:16.238Z,0
2018-11-26T00:32:25.948Z,0
2018-11-26T00:33:35.396Z,0
2018-11-26T00:34:45.340Z,0
2018-11-26T00:35:55.300Z,0
2018-11-26T00:37:05.021Z,0
2018-11-26T00:38:14.726Z,0
2018-11-26T00:39:24.436Z,0
2018-11-26T00:40:34.151Z,0
2018-11-26T00:41:44.092Z,0
2018-11-26T00:42:53.795Z,0
2018-11-26T00:44:03.507Z,0
2018-11-26T00:45:13.450Z,0
2018-11-26T00:46:23.260Z,0
2018-11-26T00:47:33.208Z,0
2018-11-26T00:48:42.665Z,0
2018-11-26T00:49:52.406Z,0
2018-11-26T00:51:01.595Z,0
2018-11-26T00:52:11.075Z,0
2018-11-26T00:53:20.766Z,0
2018-11-26T00:54:30.729Z,0
2018-11-26T00:55:40.432Z,0
2018-11-26T00:56:49.892Z,0
2018-11-26T00:57:59.607Z,0
2018-11-26T00:59:08.864Z,0
2018-11-26T01:00:18.832Z,0
2018-11-26T01:01:28.532Z,0
2018-11-26T01:02:37.983Z,0
2018-11-26T01:03:47.669Z,0
2018-11-26T01:04:57.620Z,0
2018-11-26T01:06:07.561Z,0
2018-11-26T01:07:16.999Z,0
2018-11-26T01:08:26.466Z,0
2018-11-26T01:09:36.155Z,0
2018-11-26T01:10:45.608Z,0
2018-11-26T01:11:55.308Z,0
2018-11-26T01:13:05.252Z,0
2018-11-26T01:14:14.934Z,0
2018-11-26T01:15:24.887Z,0
2018-11-26T01:16:34.586Z,0
2018-11-26T01:17:44.569Z,0
2018-11-26T01:18:54.523Z,0
2018-11-26T01:20:04.213Z,0
2018-11-26T01:21:13.659Z,0
2018-11-26T01:22:23.351Z,0
2018-11-26T01:23:32.822Z,0
2018-11-26T01:24:42.261Z,0
2018-11-26T01:25:51.948Z,0
2018-11-26T01:27:01.900Z,0
2018-11-26T01:28:11.852Z,0
2018-11-26T01:29:21.550Z,0
2018-11-26T01:30:31.504Z,0
2018-11-26T01:31:41.210Z,0
2018-11-26T01:32:51.168Z,0
2018-11-26T01:34:00.877Z,0
2018-11-26T01:35:10.829Z,0
2018-11-26T01:36:20.283Z,0
2018-11-26T01:37:29.735Z,0
2018-11-26T01:38:39.684Z,0
2018-11-26T01:39:49.123Z,0
2018-11-26T01:40:58.325Z,0
2018-11-26T01:42:08.297Z,0
2018-11-26T01:43:17.984Z,0
2018-11-26T01:44:27.675Z,0
2018-11-26T01:45:37.640Z,0
2018-11-26T01:46:46.842Z,0
2018-11-26T01:47:56.799Z,0
2018-11-26T01:49:06.744Z,0
2018-11-26T01:50:16.700Z,0
2018-11-26T01:51:26.642Z,0
2018-11-26T01:52:36.349Z,0
2018-11-26T01:53:46.292Z,0
2018-11-26T01:54:56.251Z,0
2018-11-26T01:56:05.697Z,0
2018-11-26T01:57:15.392Z,0
2018-11-26T01:58:25.335Z,0
2018-11-26T01:59:35.044Z,0
2018-11-26T02:00:44.758Z,0
2018-11-26T02:01:54.712Z,0
2018-11-26T02:03:04.436Z,0
2018-11-26T02:04:14.130Z,0
2018-11-26T02:05:23.836Z,0
2018-11-26T02:06:33.282Z,0
2018-11-26T02:07:42.968Z,0
2018-11-26T02:08:52.650Z,0
2018-11-26T02:10:02.605Z,0
2018-11-26T02:11:12.304Z,0
2018-11-26T02:12:21.762Z,0
2018-11-26T02:13:31.725Z,0
2018-11-26T02:14:41.205Z,0
2018-11-26T02:15:50.909Z,0
2018-11-26T02:17:00.617Z,0
2018-11-26T02:18:10.337Z,0
2018-11-26T02:19:20.031Z,0
2018-11-26T02:20:29.737Z,0
2018-11-26T02:21:39.187Z,0
2018-11-26T02:22:49.150Z,0
2018-11-26T02:23:58.381Z,0
2018-11-26T02:25:08.075Z,0
2018-11-26T02:26:17.776Z,0
2018-11-26T02:27:27.739Z,0
2018-11-26T02:28:37.213Z,0
2018-11-26T02:29:46.666Z,0
2018-11-26T02:30:56.629Z,0
2018-11-26T02:32:06.349Z,0
2018-11-26T02:33:16.055Z,0
2018-11-26T02:34:25.774Z,0
2018-11-26T02:35:35.489Z,0
2018-11-26T02:36:44.943Z,0
2018-11-26T02:37:54.392Z,0
2018-11-26T02:39:04.091Z,0
2018-11-26T02:40:13.794Z,0
2018-11-26T02:41:23.325Z,0
2018-11-26T02:42:33.053Z,0
2018-11-26T02:43:43.012Z,0
2018-11-26T02:44:52.454Z,0
2018-11-26T02:46:01.657Z,0
2018-11-26T02:47:11.356Z,0
2018-11-26T02:48:21.309Z,0
2018-11-26T02:49:31.025Z,0
2018-11-26T02:50:40.727Z,0
2018-11-26T02:51:50.420Z,0
2018-11-26T02:53:00.388Z,0
2018-11-26T02:54:10.341Z,0
2018-11-26T02:55:20.060Z,0
2018-11-26T02:56:29.522Z,0
2018-11-26T02:57:39.235Z,0
2018-11-26T02:58:48.692Z,0
2018-11-26T02:59:58.144Z,0
2018-11-26T03:01:07.588Z,0
2018-11-26T03:02:17.286Z,0
2018-11-26T03:03:26.988Z,0
2018-11-26T03:04:36.229Z,0
2018-11-26T03:05:46.205Z,0
2018-11-26T03:06:55.905Z,0
2018-11-26T03:08:05.870Z,0
2018-11-26T03:09:15.074Z,0
2018-11-26T03:10:24.017Z,0
2018-11-26T03:11:33.458Z,0
2018-11-26T03:12:43.152Z,0
2018-11-26T03:13:53.104Z,0
2018-11-26T03:15:02.791Z,0
2018-11-26T03:16:12.264Z,0
2018-11-26T03:17:22.211Z,0
2018-11-26T03:18:31.899Z,0
2018-11-26T03:19:41.616Z,0
2018-11-26T03:20:51.559Z,0
2018-11-26T03:22:01.530Z,0
2018-11-26T03:23:11.240Z,0
2018-11-26T03:24:20.936Z,0
2018-11-26T03:25:30.894Z,0
2018-11-26T03:26:40.583Z,0
2018-11-26T03:27:50.022Z,0
2018-11-26T03:28:59.723Z,0
2018-11-26T03:30:09.555Z,0
2018-11-26T03:31:19.284Z,0
2018-11-26T03:32:28.991Z,0
2018-11-26T03:33:38.682Z,0
2018-11-26T03:34:48.377Z,0
2018-11-26T03:35:58.328Z,0
2018-11-26T03:37:08.035Z,0
2018-11-26T03:38:16.975Z,0
2018-11-26T03:39:26.933Z,0
2018-11-26T03:40:36.873Z,0
2018-11-26T03:41:46.322Z,0
2018-11-26T03:42:56.038Z,0
2018-11-26T03:44:05.987Z,0
2018-11-26T03:45:15.930Z,0
2018-11-26T03:46:25.122Z,0
2018-11-26T03:47:35.077Z,0
2018-11-26T03:48:45.047Z,0
2018-11-26T03:49:54.766Z,0
2018-11-26T03:51:04.724Z,0
2018-11-26T03:52:14.431Z,0
2018-11-26T03:53:23.891Z,0
2018-11-26T03:54:33.341Z,0
2018-11-26T03:55:43.285Z,0
2018-11-26T03:56:53.247Z,0
2018-11-26T03:58:03.217Z,0
2018-11-26T03:59:12.977Z,0
2018-11-26T04:00:22.676Z,0
2018-11-26T04:01:32.383Z,0
2018-11-26T04:02:42.100Z,0
2018-11-26T04:03:51.797Z,0
2018-11-26T04:05:01.249Z,0
2018-11-26T04:06:10.962Z,0
2018-11-26T04:07:20.681Z,0
2018-11-26T04:08:30.127Z,0
2018-11-26T04:09:40.081Z,0
2018-11-26T04:10:49.782Z,0
2018-11-26T04:11:59.735Z,0
2018-11-26T04:13:08.940Z,0
2018-11-26T04:14:18.895Z,0
2018-11-26T04:15:28.850Z,0
2018-11-26T04:16:38.552Z,0
2018-11-26T04:17:48.533Z,0
2018-11-26T04:18:58.247Z,0
2018-11-26T04:20:07.959Z,0
2018-11-26T04:21:17.902Z,0
2018-11-26T04:22:27.864Z,0
2018-11-26T04:23:37.550Z,0
2018-11-26T04:24:47.253Z,0
2018-11-26T04:25:56.968Z,0
2018-11-26T04:27:07.865Z,0
2018-11-26T04:28:17.590Z,0
2018-11-26T04:29:27.043Z,0
2018-11-26T04:30:36.981Z,0
2018-11-26T04:31:46.694Z,0
2018-11-26T04:32:56.411Z,0
2018-11-26T04:34:06.145Z,0
2018-11-26T04:35:15.853Z,0
2018-11-26T04:36:25.551Z,0
2018-11-26T04:37:35.406Z,0
2018-11-26T04:38:45.391Z,0
2018-11-26T04:39:55.391Z,0
2018-11-26T04:41:04.576Z,0
2018-11-26T04:42:14.280Z,0
2018-11-26T04:43:23.739Z,0
2018-11-26T04:44:33.914Z,0
2018-11-26T04:45:43.626Z,0
2018-11-26T04:46:53.565Z,0
2018-11-26T04:48:03.270Z,0
2018-11-26T04:49:13.233Z,0
2018-11-26T04:50:23.183Z,0
2018-11-26T04:51:33.131Z,0
2018-11-26T04:52:42.827Z,0
2018-11-26T04:53:52.785Z,0
2018-11-26T04:55:02.745Z,0
2018-11-26T04:56:12.209Z,0
2018-11-26T04:57:22.161Z,0
2018-11-26T04:58:31.858Z,0
2018-11-26T04:59:41.060Z,0
2018-11-26T05:00:50.781Z,0
2018-11-26T05:02:00.489Z,0
2018-11-26T05:03:09.946Z,0
2018-11-26T05:04:19.680Z,0
2018-11-26T05:05:28.879Z,0
2018-11-26T05:06:38.594Z,0
2018-11-26T05:07:47.818Z,0
2018-11-26T05:08:57.522Z,0
2018-11-26T05:10:07.031Z,0
2018-11-26T05:11:16.751Z,0
2018-11-26T05:12:26.708Z,0
2018-11-26T05:13:36.649Z,0
2018-11-26T05:14:46.078Z,0
2018-11-26T05:15:56.023Z,0
2018-11-26T05:17:05.504Z,0
2018-11-26T05:18:15.526Z,0
2018-11-26T05:19:25.223Z,0
2018-11-26T05:20:34.936Z,0
2018-11-26T05:21:44.645Z,0
2018-11-26T05:22:54.350Z,0
2018-11-26T05:24:04.299Z,0
2018-11-26T05:25:13.757Z,0
2018-11-26T05:26:23.452Z,0
2018-11-26T05:27:33.182Z,0
2018-11-26T05:28:42.658Z,0
2018-11-26T05:29:52.596Z,0
2018-11-26T05:31:02.556Z,0
2018-11-26T05:32:12.523Z,0
2018-11-26T05:33:22.219Z,0
2018-11-26T05:34:32.173Z,0
2018-11-26T05:35:41.620Z,0
2018-11-26T05:36:50.826Z,0
2018-11-26T05:38:00.781Z,0
2018-11-26T05:39:09.990Z,0
2018-11-26T05:40:19.955Z,0
2018-11-26T05:41:29.409Z,0
2018-11-26T05:42:38.855Z,0
2018-11-26T05:43:48.568Z,0
2018-11-26T05:44:58.284Z,0
2018-11-26T05:46:07.773Z,0
2018-11-26T05:47:17.706Z,0
2018-11-26T05:48:27.656Z,0
2018-11-26T05:49:36.854Z,0
2018-11-26T05:50:46.559Z,0
2018-11-26T05:51:56.533Z,0
2018-11-26T05:53:05.993Z,0
2018-11-26T05:54:15.705Z,0
2018-11-26T05:55:26.136Z,0
2018-11-26T05:56:35.588Z,0
2018-11-26T05:57:45.299Z,0
2018-11-26T05:58:55.006Z,0
2018-11-26T06:00:04.699Z,0
2018-11-26T06:01:14.162Z,0
2018-11-26T06:02:24.134Z,0
2018-11-26T06:03:33.836Z,0
2018-11-26T06:04:43.786Z,0
2018-11-26T06:05:53.749Z,0
2018-11-26T06:07:03.460Z,0
2018-11-26T06:08:13.157Z,0
2018-11-26T06:09:22.855Z,0
2018-11-26T06:10:32.837Z,0
2018-11-26T06:11:42.535Z,0
2018-11-26T06:12:51.728Z,0
2018-11-26T06:14:01.183Z,0
2018-11-26T06:15:10.885Z,0
2018-11-26T06:16:20.591Z,0
2018-11-26T06:17:30.310Z,0
2018-11-26T06:18:40.041Z,0
2018-11-26T06:19:49.522Z,0
2018-11-26T06:20:59.225Z,0
2018-11-26T06:22:09.175Z,0
2018-11-26T06:23:18.393Z,0
2018-11-26T06:24:28.099Z,0
2018-11-26T06:25:37.799Z,0
2018-11-26T06:26:47.504Z,0
2018-11-26T06:27:57.479Z,0
2018-11-26T06:29:07.184Z,0
2018-11-26T06:30:17.152Z,0
2018-11-26T06:31:26.613Z,0
2018-11-26T06:32:36.069Z,0
2018-11-26T06:33:46.018Z,0
2018-11-26T06:34:55.480Z,0
2018-11-26T06:36:05.428Z,0
2018-11-26T06:37:15.376Z,0
2018-11-26T06:38:25.327Z,0
2018-11-26T06:39:35.059Z,0
2018-11-26T06:40:44.522Z,0
2018-11-26T06:41:53.977Z,0
2018-11-26T06:43:03.428Z,0
2018-11-26T06:44:13.138Z,0
2018-11-26T06:45:22.855Z,5
2018-11-26T06:46:32.308Z,0
2018-11-26T06:47:41.517Z,5
2018-11-26T06:48:52.260Z,5
2018-11-26T06:50:01.960Z,5
2018-11-26T06:51:11.664Z,5
2018-11-26T06:52:21.368Z,5
2018-11-26T06:53:31.371Z,5
2018-11-26T06:54:41.342Z,5
2018-11-26T06:55:51.309Z,5
2018-11-26T06:57:00.783Z,5
2018-11-26T06:58:10.243Z,5
2018-11-26T06:59:20.203Z,5
2018-11-26T07:00:30.155Z,5
2018-11-26T07:01:39.609Z,5
2018-11-26T07:02:49.584Z,5
2018-11-26T07:03:59.034Z,5
2018-11-26T07:05:09.010Z,5
2018-11-26T07:06:18.484Z,5
2018-11-26T07:07:28.449Z,5
2018-11-26T07:08:38.414Z,10
2018-11-26T07:09:47.615Z,10
2018-11-26T07:10:57.313Z,10
2018-11-26T07:12:07.260Z,10
2018-11-26T07:13:16.987Z,10
2018-11-26T07:14:26.442Z,10
2018-11-26T07:15:36.164Z,10
2018-11-26T07:16:47.236Z,10
2018-11-26T07:17:56.696Z,10
2018-11-26T07:19:05.908Z,10
2018-11-26T07:20:15.897Z,10
2018-11-26T07:21:25.612Z,15
2018-11-26T07:22:35.064Z,15
2018-11-26T07:23:45.022Z,15
2018-11-26T07:24:54.475Z,15
2018-11-26T07:26:04.184Z,15
2018-11-26T07:27:13.826Z,15
2018-11-26T07:28:23.785Z,15
2018-11-26T07:29:33.708Z,20
2018-11-26T07:30:43.178Z,15
2018-11-26T07:31:52.931Z,20
2018-11-26T07:33:02.625Z,20
2018-11-26T07:34:12.585Z,20
2018-11-26T07:35:22.037Z,25
2018-11-26T07:36:31.732Z,25
2018-11-26T07:37:41.750Z,25
2018-11-26T07:38:51.218Z,30
2018-11-26T07:40:00.678Z,35
2018-11-26T07:41:10.637Z,35
2018-11-26T07:42:20.066Z,35
2018-11-26T07:43:29.766Z,35
2018-11-26T07:44:39.753Z,35
2018-11-26T07:45:49.724Z,30
2018-11-26T07:46:59.425Z,35
2018-11-26T07:48:08.688Z,35
2018-11-26T07:49:18.518Z,30
2018-11-26T07:50:28.385Z,30
2018-11-26T07:51:37.427Z,30
2018-11-26T07:52:46.980Z,30
2018-11-26T07:53:55.988Z,30
2018-11-26T07:55:05.893Z,35
2018-11-26T07:56:16.058Z,40
2018-11-26T07:57:26.033Z,40
2018-11-26T07:58:35.830Z,50
2018-11-26T07:59:45.600Z,55
2018-11-26T08:00:55.683Z,55
2018-11-26T08:02:05.260Z,50
2018-11-26T08:03:15.219Z,55
2018-11-26T08:04:25.489Z,55
2018-11-26T08:05:35.223Z,50
2018-11-26T08:06:45.181Z,50
2018-11-26T08:07:54.910Z,60
2018-11-26T08:09:04.509Z,60
2018-11-26T08:10:14.504Z,60
2018-11-26T08:11:24.454Z,65
2018-11-26T08:12:34.687Z,65
2018-11-26T08:13:44.177Z,70
2018-11-26T08:14:54.345Z,75
2018-11-26T08:16:04.488Z,80
2018-11-26T08:17:14.449Z,80
2018-11-26T08:18:24.054Z,80
2018-11-26T08:19:33.835Z,80
2018-11-26T08:20:43.373Z,75
2018-11-26T08:21:53.616Z,75
2018-11-26T08:23:03.539Z,80
2018-11-26T08:24:13.082Z,75
2018-11-26T08:25:22.755Z,80
2018-11-26T08:26:31.983Z,75
2018-11-26T08:27:41.961Z,70
2018-11-26T08:28:52.080Z,75
2018-11-26T08:30:01.654Z,75
2018-11-26T08:31:11.257Z,75
2018-11-26T08:32:21.308Z,80
2018-11-26T08:33:31.145Z,80
2018-11-26T08:34:40.695Z,80
2018-11-26T08:35:50.729Z,85
2018-11-26T08:37:00.929Z,75
2018-11-26T08:38:11.077Z,80
2018-11-26T08:39:20.799Z,75
2018-11-26T08:40:30.857Z,75
2018-11-26T08:41:40.475Z,80
2018-11-26T08:42:50.657Z,85
2018-11-26T08:44:01.054Z,75
2018-11-26T08:45:11.125Z,70
2018-11-26T08:46:20.698Z,75
2018-11-26T08:47:30.542Z,75
2018-11-26T08:48:40.278Z,80
2018-11-26T08:49:50.220Z,90
2018-11-26T08:50:59.994Z,85
2018-11-26T08:52:09.846Z,85
2018-11-26T08:53:19.623Z,90
2018-11-26T08:54:29.774Z,85
2018-11-26T08:55:40.245Z,100
2018-11-26T08:56:50.352Z,100
2018-11-26T08:58:00.033Z,90
2018-11-26T08:59:09.550Z,100
2018-11-26T09:00:19.614Z,100
2018-11-26T09:01:29.012Z,105
2018-11-26T09:02:39.221Z,85
2018-11-26T09:03:48.764Z,85
2018-11-26T09:04:58.968Z,90
2018-11-26T09:06:09.536Z,100
2018-11-26T09:07:19.628Z,95
2018-11-26T09:08:30.538Z,90
2018-11-26T09:09:43.043Z,85
2018-11-26T09:10:53.616Z,80
2018-11-26T09:12:04.038Z,85
2018-11-26T09:13:14.333Z,95
2018-11-26T09:14:24.839Z,85
2018-11-26T09:15:35.583Z,95
2018-11-26T09:16:45.923Z,105
2018-11-26T09:17:57.147Z,95
2018-11-26T09:19:06.725Z,90
2018-11-26T09:20:16.795Z,100
2018-11-26T09:21:26.253Z,100
2018-11-26T09:22:35.489Z,95
2018-11-26T09:23:45.773Z,85
2018-11-26T09:24:55.502Z,95
2018-11-26T09:26:05.798Z,90
2018-11-26T09:27:19.216Z,95
2018-11-26T09:28:29.275Z,85
2018-11-26T09:29:39.266Z,85
2018-11-26T09:30:48.711Z,95
2018-11-26T09:31:58.723Z,95
2018-11-26T09:33:08.747Z,90
2018-11-26T09:34:18.518Z,100
2018-11-26T09:35:28.386Z,90
2018-11-26T09:36:37.972Z,90
2018-11-26T09:37:48.194Z,95
2018-11-26T09:38:57.505Z,100
2018-11-26T09:40:07.863Z,100
2018-11-26T09:41:17.691Z,100
2018-11-26T09:42:27.489Z,95
2018-11-26T09:43:37.026Z,110
2018-11-26T09:44:47.311Z,105
2018-11-26T09:45:56.876Z,110
2018-11-26T09:47:06.800Z,125
2018-11-26T09:48:16.629Z,140
2018-11-26T09:49:26.684Z,145
2018-11-26T09:50:36.501Z,165
2018-11-26T09:51:51.468Z,210
2018-11-26T09:53:01.560Z,215
2018-11-26T09:54:11.100Z,190
2018-11-26T09:55:21.085Z,160
2018-11-26T09:56:31.126Z,150
2018-11-26T09:57:41.341Z,155
2018-11-26T09:58:51.400Z,145
2018-11-26T10:00:01.472Z,150
2018-11-26T10:01:11.221Z,150
2018-11-26T10:02:21.184Z,155
2018-11-26T10:03:31.200Z,160
2018-11-26T10:04:41.746Z,160
2018-11-26T10:05:51.471Z,165
2018-11-26T10:07:01.540Z,180
2018-11-26T10:08:11.048Z,175
2018-11-26T10:09:21.246Z,205
2018-11-26T10:10:30.807Z,195
2018-11-26T10:11:40.576Z,190
2018-11-26T10:12:50.697Z,200
2018-11-26T10:14:00.720Z,195
2018-11-26T10:15:10.713Z,175
2018-11-26T10:16:20.062Z,160
2018-11-26T10:17:29.896Z,150
2018-11-26T10:18:39.174Z,145
2018-11-26T10:19:49.020Z,145
2018-11-26T10:20:58.598Z,155
2018-11-26T10:22:08.429Z,145
2018-11-26T10:23:18.328Z,150
2018-11-26T10:24:28.293Z,145
2018-11-26T10:25:38.096Z,140
2018-11-26T10:26:48.279Z,135
2018-11-26T10:27:58.178Z,130
2018-11-26T10:29:07.977Z,125
2018-11-26T10:30:17.892Z,120
2018-11-26T10:31:27.597Z,120
2018-11-26T10:32:37.016Z,120
2018-11-26T10:33:46.635Z,120
2018-11-26T10:34:56.690Z,125
2018-11-26T10:36:06.446Z,115
2018-11-26T10:37:16.346Z,110
2018-11-26T10:38:26.064Z,120
2018-11-26T10:39:35.802Z,120
2018-11-26T10:40:45.658Z,120
2018-11-26T10:41:55.585Z,125
2018-11-26T10:43:11.498Z,125
2018-11-26T10:44:21.501Z,125
2018-11-26T10:45:31.265Z,125
2018-11-26T10:46:41.008Z,145
2018-11-26T10:47:51.294Z,140
2018-11-26T10:49:01.571Z,135
2018-11-26T10:50:11.407Z,130
2018-11-26T10:51:21.645Z,140
2018-11-26T10:52:31.694Z,150
2018-11-26T10:53:41.196Z,145
2018-11-26T10:54:50.918Z,130
2018-11-26T10:56:00.511Z,125
2018-11-26T10:57:10.237Z,120
2018-11-26T10:58:20.248Z,130
2018-11-26T10:59:30.383Z,140
2018-11-26T11:00:39.888Z,140
2018-11-26T11:01:49.992Z,130
2018-11-26T11:02:59.510Z,140
2018-11-26T11:04:09.094Z,145
2018-11-26T11:05:18.674Z,140
2018-11-26T11:06:28.753Z,135
2018-11-26T11:07:38.609Z,125
2018-11-26T11:08:48.553Z,135
2018-11-26T11:09:58.380Z,135
2018-11-26T11:11:08.531Z,140
2018-11-26T11:12:18.451Z,135
2018-11-26T11:13:28.070Z,140
2018-11-26T11:14:38.229Z,140
2018-11-26T11:15:47.823Z,150
2018-11-26T11:16:58.022Z,150
2018-11-26T11:18:08.181Z,140
2018-11-26T11:19:18.044Z,140
2018-11-26T11:20:28.231Z,145
2018-11-26T11:21:38.081Z,145
2018-11-26T11:22:50.340Z,130
2018-11-26T11:24:00.452Z,120
2018-11-26T11:25:10.069Z,125
2018-11-26T11:26:19.462Z,115
2018-11-26T11:27:30.323Z,110
2018-11-26T11:28:40.127Z,100
2018-11-26T11:29:50.092Z,90
2018-11-26T11:31:00.062Z,85
2018-11-26T11:32:10.037Z,85
2018-11-26T11:34:29.136Z,95
2018-11-26T11:35:38.617Z,100
2018-11-26T11:36:48.565Z,90
2018-11-26T11:37:58.504Z,85
2018-11-26T11:39:07.959Z,85
2018-11-26T11:40:17.455Z,85
2018-11-26T11:41:27.408Z,90
2018-11-26T11:42:37.356Z,80
2018-11-26T11:43:46.800Z,75
2018-11-26T11:44:56.493Z,80
2018-11-26T11:46:06.440Z,75
2018-11-26T11:47:16.495Z,80
2018-11-26T11:48:26.203Z,75
2018-11-26T11:49:36.691Z,75
2018-11-26T11:50:46.733Z,75
2018-11-26T11:51:56.814Z,75
2018-11-26T11:53:06.524Z,75
2018-11-26T11:54:16.475Z,75
2018-11-26T11:55:26.452Z,75
2018-11-26T11:56:36.396Z,75
2018-11-26T11:57:46.105Z,75
2018-11-26T11:58:55.793Z,85
2018-11-26T12:00:05.495Z,90
2018-11-26T12:01:20.949Z,85
2018-11-26T12:02:30.925Z,85
2018-11-26T12:03:40.873Z,75
2018-11-26T12:04:50.894Z,85
2018-11-26T12:06:00.846Z,90
2018-11-26T12:07:10.814Z,95
2018-11-26T12:08:20.753Z,95
2018-11-26T12:09:30.723Z,100
2018-11-26T12:10:40.696Z,105
2018-11-26T12:11:50.672Z,100
2018-11-26T12:13:00.647Z,100
2018-11-26T12:14:10.381Z,115
2018-11-26T12:15:20.437Z,120
2018-11-26T12:16:30.389Z,130
2018-11-26T12:17:40.094Z,130
2018-11-26T12:18:49.791Z,130
2018-11-26T12:19:59.488Z,130
2018-11-26T12:21:09.482Z,125
2018-11-26T12:22:19.439Z,120
2018-11-26T12:23:29.157Z,110
2018-11-26T12:24:38.856Z,110
2018-11-26T12:25:48.787Z,110
2018-11-26T12:26:58.739Z,115
2018-11-26T12:28:08.691Z,110
2018-11-26T12:29:18.674Z,110
2018-11-26T12:30:28.937Z,115
2018-11-26T12:31:38.652Z,115
2018-11-26T12:32:48.385Z,110
2018-11-26T12:33:57.564Z,105
2018-11-26T12:35:07.260Z,105
2018-11-26T12:36:17.214Z,100
2018-11-26T12:37:26.657Z,95
2018-11-26T12:38:36.602Z,95
2018-11-26T12:39:46.551Z,90
2018-11-26T12:40:56.242Z,90
2018-11-26T12:42:09.028Z,90
2018-11-26T12:43:18.969Z,80
2018-11-26T12:44:28.667Z,80
2018-11-26T12:45:38.655Z,85
2018-11-26T12:46:48.348Z,80
2018-11-26T12:47:58.310Z,80
2018-11-26T12:49:08.273Z,85
2018-11-26T12:50:17.981Z,85
2018-11-26T12:51:27.670Z,80
2018-11-26T12:52:37.369Z,80
2018-11-26T12:53:47.359Z,75
2018-11-26T12:54:57.305Z,80
2018-11-26T12:56:07.253Z,80
2018-11-26T12:57:16.957Z,85
2018-11-26T12:58:26.907Z,95
2018-11-26T12:59:36.595Z,95
2018-11-26T13:00:46.594Z,95
2018-11-26T13:01:56.535Z,90
2018-11-26T13:03:06.476Z,80
2018-11-26T13:04:16.416Z,80
2018-11-26T13:05:26.364Z,85
2018-11-26T13:06:36.052Z,80
2018-11-26T13:07:45.806Z,75
2018-11-26T13:08:55.763Z,75
2018-11-26T13:10:05.709Z,75
2018-11-26T13:11:15.405Z,80
2018-11-26T13:12:24.843Z,80
2018-11-26T13:13:34.523Z,80
2018-11-26T13:14:44.232Z,75
2018-11-26T13:15:53.925Z,70
2018-11-26T13:17:03.658Z,75
2018-11-26T13:18:13.948Z,80
2018-11-26T13:19:23.638Z,85
2018-11-26T13:20:33.410Z,80
2018-11-26T13:21:44.069Z,75
2018-11-26T13:22:54.021Z,75
2018-11-26T13:24:03.714Z,80
2018-11-26T13:25:13.682Z,75
2018-11-26T13:26:23.140Z,75
2018-11-26T13:27:33.135Z,75
2018-11-26T13:28:43.265Z,70
2018-11-26T13:29:52.954Z,70
2018-11-26T13:31:02.649Z,65
2018-11-26T13:32:12.089Z,65
2018-11-26T13:33:22.046Z,65
2018-11-26T13:34:31.259Z,65
2018-11-26T13:35:40.950Z,60
2018-11-26T13:36:50.654Z,60
2018-11-26T13:38:00.601Z,60
2018-11-26T13:39:10.570Z,55
2018-11-26T13:40:20.541Z,50
2018-11-26T13:41:30.243Z,50
2018-11-26T13:42:39.694Z,50
2018-11-26T13:43:49.633Z,45
2018-11-26T13:44:59.323Z,45
2018-11-26T13:46:09.266Z,45
2018-11-26T13:47:18.964Z,45
2018-11-26T13:48:28.922Z,40
2018-11-26T13:49:38.631Z,40
2018-11-26T13:50:48.326Z,40
2018-11-26T13:51:58.263Z,40
2018-11-26T13:53:08.172Z,35
2018-11-26T13:54:17.854Z,35
2018-11-26T13:55:27.295Z,30
2018-11-26T13:56:37.246Z,30
2018-11-26T13:57:46.943Z,30
2018-11-26T13:58:56.871Z,30
2018-11-26T14:00:06.582Z,25
2018-11-26T14:01:16.028Z,25
2018-11-26T14:02:25.747Z,25
2018-11-26T14:03:35.766Z,25
2018-11-26T14:04:45.474Z,25
2018-11-26T14:05:55.412Z,25
2018-11-26T14:07:05.126Z,25
2018-11-26T14:08:15.086Z,25
2018-11-26T14:09:25.066Z,25
2018-11-26T14:10:35.039Z,20
2018-11-26T14:11:45.123Z,20
2018-11-26T14:12:55.116Z,20
2018-11-26T14:14:04.809Z,20
2018-11-26T14:15:14.822Z,20
2018-11-26T14:16:24.765Z,20
2018-11-26T14:17:34.502Z,15
2018-11-26T14:18:44.471Z,15
2018-11-26T14:19:54.431Z,15
2018-11-26T14:21:04.398Z,15
2018-11-26T14:22:15.178Z,15
2018-11-26T14:23:25.252Z,15
2018-11-26T14:24:35.216Z,15
2018-11-26T14:25:44.922Z,10
2018-11-26T14:26:54.886Z,10
2018-11-26T14:28:04.840Z,10
2018-11-26T14:29:14.549Z,10
2018-11-26T14:30:24.529Z,10
2018-11-26T14:31:33.992Z,10
2018-11-26T14:32:43.968Z,10
2018-11-26T14:33:53.924Z,10
2018-11-26T14:35:03.904Z,10
2018-11-26T14:36:13.619Z,10
2018-11-26T14:37:23.578Z,5
2018-11-26T14:38:32.779Z,5
2018-11-26T14:39:42.726Z,5
2018-11-26T14:40:52.666Z,5
2018-11-26T14:42:02.614Z,5
2018-11-26T14:43:12.544Z,5
2018-11-26T14:44:22.254Z,5
2018-11-26T14:45:32.008Z,5
2018-11-26T14:46:41.959Z,5
2018-11-26T14:47:52.843Z,5
2018-11-26T14:49:02.814Z,5
2018-11-26T14:50:12.499Z,5
2018-11-26T14:51:21.942Z,5
2018-11-26T14:52:31.902Z,5
2018-11-26T14:53:41.847Z,0
2018-11-26T14:54:51.793Z,0
2018-11-26T14:56:01.743Z,0
2018-11-26T14:57:11.679Z,0
2018-11-26T14:58:21.430Z,0
2018-11-26T14:59:31.136Z,0
2018-11-26T15:00:41.080Z,0
2018-11-26T15:01:51.039Z,0
2018-11-26T15:03:01.001Z,0
2018-11-26T15:04:10.964Z,0
2018-11-26T15:05:20.914Z,0
2018-11-26T15:06:30.360Z,0
2018-11-26T15:07:40.110Z,0
2018-11-26T15:08:49.860Z,0
2018-11-26T15:09:59.547Z,0
2018-11-26T15:11:09.292Z,0
2018-11-26T15:12:18.746Z,0
2018-11-26T15:13:28.448Z,0
2018-11-26T15:14:38.133Z,0
2018-11-26T15:15:48.150Z,0
2018-11-26T15:16:58.097Z,0
2018-11-26T15:18:07.814Z,0
2018-11-26T15:19:17.758Z,0
2018-11-26T15:20:27.705Z,0
2018-11-26T15:21:37.410Z,0
2018-11-26T15:22:47.115Z,0
2018-11-26T15:23:56.578Z,0
2018-11-26T15:25:06.535Z,0
2018-11-26T15:26:16.483Z,0
2018-11-26T15:27:26.427Z,0
2018-11-26T15:28:36.132Z,0
2018-11-26T15:29:45.574Z,0
2018-11-26T15:30:55.030Z,0
2018-11-26T15:32:04.988Z,0
2018-11-26T15:33:14.938Z,0
2018-11-26T15:34:24.907Z,0
2018-11-26T15:35:34.887Z,0
2018-11-26T15:36:44.838Z,0
2018-11-26T15:37:54.543Z,0
2018-11-26T15:39:04.487Z,0
2018-11-26T15:40:14.189Z,0
2018-11-26T15:41:23.892Z,0
2018-11-26T15:42:33.920Z,0
2018-11-26T15:43:43.771Z,0
2018-11-26T15:44:53.983Z,0
2018-11-26T15:46:03.963Z,0
2018-11-26T15:47:13.572Z,0
2018-11-26T15:48:23.515Z,0
2018-11-26T15:49:33.482Z,0
2018-11-26T15:50:43.449Z,0
2018-11-26T15:51:53.150Z,0
2018-11-26T15:53:03.087Z,0
2018-11-26T15:54:13.021Z,0
2018-11-26T15:55:22.464Z,0
2018-11-26T15:56:32.183Z,0
2018-11-26T15:57:42.134Z,0
2018-11-26T15:58:51.848Z,0
2018-11-26T16:00:01.796Z,0
2018-11-26T16:01:11.274Z,0
2018-11-26T16:02:20.725Z,0
2018-11-26T16:03:30.670Z,0
2018-11-26T16:04:40.624Z,0
2018-11-26T16:05:50.104Z,0
2018-11-26T16:06:59.855Z,0
2018-11-26T16:08:09.785Z,0
2018-11-26T16:09:19.723Z,0
2018-11-26T16:10:29.691Z,0
2018-11-26T16:11:39.642Z,0
2018-11-26T16:12:49.589Z,0
2018-11-26T16:13:59.537Z,0
2018-11-26T16:15:09.560Z,0
2018-11-26T16:16:19.266Z,0
2018-11-26T16:17:29.192Z,0
2018-11-26T16:18:39.196Z,0
2018-11-26T16:19:48.890Z,0
2018-11-26T16:20:58.612Z,0
2018-11-26T16:22:08.543Z,0
2018-11-26T16:23:18.487Z,0
2018-11-26T16:24:28.192Z,0
2018-11-26T16:25:37.893Z,0
2018-11-26T16:26:47.585Z,0
2018-11-26T16:27:57.267Z,0
2018-11-26T16:29:07.230Z,0
2018-11-26T16:30:17.171Z,0
2018-11-26T16:31:26.868Z,0
2018-11-26T16:32:36.567Z,0
2018-11-26T16:33:46.264Z,0
2018-11-26T16:34:56.210Z,0
2018-11-26T16:36:05.896Z,0
2018-11-26T16:37:15.885Z,0
2018-11-26T16:38:25.831Z,0
2018-11-26T16:39:35.785Z,0
2018-11-26T16:40:45.493Z,0
2018-11-26T16:41:54.951Z,0
2018-11-26T16:43:04.901Z,0
2018-11-26T16:44:14.833Z,0
2018-11-26T16:45:24.791Z,0
2018-11-26T16:46:34.729Z,0
2018-11-26T16:47:44.461Z,0
2018-11-26T16:48:54.148Z,0
2018-11-26T16:50:04.109Z,0
2018-11-26T16:51:13.801Z,0
2018-11-26T16:52:23.504Z,0